Time;durP1;ratioP1;P1;durP2;ratioP2;P2;SDS_P1;SDS_P2;PMS_P1;PMS_P2;Temp;Humidity;BMP_temperature;BMP_pressure;BME280_temperature;BME280_humidity;BME280_pressure;Samples;Min_cycle;Max_cycle;Signal;HPM_P1;HPM_P2
2023/08/09 00:00:28;;;;;;;;;;;19.20;65.30;;;;;;5028008;28;19913;-52
2023/08/09 00:02:54;;;;;;;;;;;19.20;65.30;;;;;;5025167;28;19962;-53
2023/08/09 00:05:19;;;;;;;;;;;19.20;65.30;;;;;;5024140;28;20447;-53
2023/08/09 00:07:45;;;;;;;;;;;19.20;65.30;;;;;;5024536;28;19952;-52
2023/08/09 00:10:10;;;;;;;;;;;19.20;65.30;;;;;;5023874;28;19921;-53
2023/08/09 00:12:36;;;;;;;;;;;19.20;65.30;;;;;;5018324;28;20309;-52
2023/08/09 00:15:01;;;;;;;;;;;19.20;65.30;;;;;;5024132;28;19951;-53
2023/08/09 00:17:27;;;;;;;;;;;19.20;65.20;;;;;;5006766;28;19926;-52
2023/08/09 00:19:53;;;;;;;;;;;19.20;65.20;;;;;;5007144;28;19924;-53
2023/08/09 00:22:18;;;;;;;;;;;19.20;65.10;;;;;;5022304;28;19917;-53
2023/08/09 00:24:44;;;;;;;;;;;19.20;65.10;;;;;;5024140;28;19997;-52
2023/08/09 00:27:09;;;;;;;;;;;19.20;65.20;;;;;;5023308;28;19913;-53
2023/08/09 00:29:35;;;;;;;;;;;19.20;65.20;;;;;;5024877;28;19921;-53
2023/08/09 00:32:00;;;;;;;;;;;19.10;65.00;;;;;;5021626;28;19913;-53
2023/08/09 00:34:25;;;;;;;;;;;19.20;65.20;;;;;;5024290;28;19927;-52
2023/08/09 00:36:51;;;;;;;;;;;19.10;65.50;;;;;;5020333;28;19952;-53
2023/08/09 00:39:17;;;;;;;;;;;19.10;65.10;;;;;;5030479;28;19970;-52
2023/08/09 00:41:42;;;;;;;;;;;19.20;65.10;;;;;;5011691;28;19960;-52
2023/08/09 00:44:07;;;;;;;;;;;19.20;65.00;;;;;;5031856;28;19916;-52
2023/08/09 00:46:34;;;;;;;;;;;19.20;65.00;;;;;;5048754;28;20420;-52
2023/08/09 00:49:00;;;;;;;;;;;19.20;65.00;;;;;;5014322;28;19921;-52
2023/08/09 00:51:25;;;;;;;;;;;19.10;65.00;;;;;;5030723;28;20636;-52
2023/08/09 00:53:51;;;;;;;;;;;19.10;65.00;;;;;;5030434;28;19909;-53
2023/08/09 00:56:16;;;;;;;;;;;19.10;65.10;;;;;;5041116;28;20011;-53
2023/08/09 00:58:41;;;;;;;;;;;19.10;65.00;;;;;;5031498;28;19924;-52
2023/08/09 01:01:07;;;;;;;;;;;19.10;65.00;;;;;;5032002;28;19962;-52
2023/08/09 01:03:32;;;;;;;;;;;19.10;65.00;;;;;;5032700;28;19982;-53
2023/08/09 01:06:02;;;;;;;;;;;19.10;65.10;;;;;;5031971;28;19910;-52
2023/08/09 01:08:34;;;;;;;;;;;19.10;65.00;;;;;;5025635;28;19912;-52
2023/08/09 01:11:10;;;;;;;;;;;19.10;64.90;;;;;;5021699;28;19922;-54
2023/08/09 01:13:38;;;;;;;;;;;19.10;65.00;;;;;;5013941;28;19947;-52
2023/08/09 01:16:05;;;;;;;;;;;19.10;65.00;;;;;;5023201;28;19920;-52
2023/08/09 01:18:30;;;;;;;;;;;19.10;65.00;;;;;;5021264;28;19955;-52
2023/08/09 01:20:56;;;;;;;;;;;19.10;65.00;;;;;;5019221;28;19916;-52
2023/08/09 01:23:21;;;;;;;;;;;19.10;65.00;;;;;;5005068;28;19948;-53
2023/08/09 01:25:48;;;;;;;;;;;19.10;64.90;;;;;;5020487;28;19920;-54
2023/08/09 01:28:14;;;;;;;;;;;19.10;64.80;;;;;;5019829;28;19940;-53
2023/08/09 01:30:40;;;;;;;;;;;19.10;64.80;;;;;;5022646;28;19925;-52
2023/08/09 01:33:05;;;;;;;;;;;19.10;64.80;;;;;;5020461;28;20343;-53
2023/08/09 01:35:34;;;;;;;;;;;19.10;64.80;;;;;;5023375;28;20407;-52
2023/08/09 01:38:08;;;;;;;;;;;19.10;64.90;;;;;;5023585;28;19917;-53
2023/08/09 01:40:33;;;;;;;;;;;19.00;64.90;;;;;;5029263;28;20373;-52
2023/08/09 01:42:59;;;;;;;;;;;19.00;64.90;;;;;;5021623;28;19919;-52
2023/08/09 01:45:25;;;;;;;;;;;19.00;64.90;;;;;;5021982;28;19925;-52
2023/08/09 01:47:51;;;;;;;;;;;19.00;64.90;;;;;;5007118;28;19925;-53
2023/08/09 01:50:20;;;;;;;;;;;19.00;64.90;;;;;;5021218;28;19992;-52
2023/08/09 01:52:45;;;;;;;;;;;19.00;64.90;;;;;;5028172;28;19917;-52
2023/08/09 01:55:13;;;;;;;;;;;19.00;64.90;;;;;;5033271;28;20395;-52
2023/08/09 01:57:39;;;;;;;;;;;19.00;65.00;;;;;;5014626;28;19914;-53
2023/08/09 02:00:08;;;;;;;;;;;19.00;64.90;;;;;;5032514;28;19967;-52
2023/08/09 02:02:33;;;;;;;;;;;19.00;64.90;;;;;;5031991;28;19920;-52
2023/08/09 02:04:59;;;;;;;;;;;19.00;65.00;;;;;;5033894;28;19909;-53
2023/08/09 02:07:24;;;;;;;;;;;19.00;65.10;;;;;;5027699;28;19979;-54
2023/08/09 02:09:50;;;;;;;;;;;19.00;65.10;;;;;;5022745;28;19921;-52
2023/08/09 02:12:15;;;;;;;;;;;19.00;65.00;;;;;;5010312;28;19925;-54
2023/08/09 02:14:41;;;;;;;;;;;19.00;65.80;;;;;;5025425;28;20365;-52
2023/08/09 02:17:09;;;;;;;;;;;19.00;65.00;;;;;;5024365;28;19913;-53
2023/08/09 02:19:35;;;;;;;;;;;19.00;65.00;;;;;;5008123;28;19960;-53
2023/08/09 02:22:00;;;;;;;;;;;18.90;64.90;;;;;;5019728;28;19960;-53
2023/08/09 02:24:26;;;;;;;;;;;18.90;64.90;;;;;;5022170;28;19917;-53
2023/08/09 02:26:51;;;;;;;;;;;18.90;64.80;;;;;;5023542;28;19914;-52
2023/08/09 02:29:17;;;;;;;;;;;18.90;64.80;;;;;;5023990;28;19928;-52
2023/08/09 02:31:43;;;;;;;;;;;18.90;64.90;;;;;;5022918;28;20003;-53
2023/08/09 02:34:08;;;;;;;;;;;19.00;64.90;;;;;;5022307;28;20011;-53
2023/08/09 02:36:34;;;;;;;;;;;19.00;64.80;;;;;;5026622;28;19913;-53
2023/08/09 02:38:59;;;;;;;;;;;18.90;64.70;;;;;;5032290;28;19924;-52
2023/08/09 02:41:25;;;;;;;;;;;19.00;64.80;;;;;;5035086;28;20076;-53
2023/08/09 02:43:50;;;;;;;;;;;18.90;64.70;;;;;;5034240;28;20008;-52
2023/08/09 02:46:16;;;;;;;;;;;18.90;64.90;;;;;;5034486;28;20372;-52
2023/08/09 02:48:41;;;;;;;;;;;18.90;64.70;;;;;;5032208;28;19928;-52
2023/08/09 02:51:07;;;;;;;;;;;18.90;64.70;;;;;;5033957;28;19913;-52
2023/08/09 02:53:34;;;;;;;;;;;18.90;64.70;;;;;;5034506;28;19909;-52
2023/08/09 02:55:59;;;;;;;;;;;19.00;64.90;;;;;;5019915;28;19913;-52
2023/08/09 02:58:25;;;;;;;;;;;18.90;64.70;;;;;;5033529;28;20494;-52
2023/08/09 03:00:50;;;;;;;;;;;18.90;64.70;;;;;;5034922;28;19909;-52
2023/08/09 03:03:16;;;;;;;;;;;18.90;64.60;;;;;;5031965;28;19921;-53
2023/08/09 03:05:41;;;;;;;;;;;18.90;64.60;;;;;;5032100;28;20005;-53
2023/08/09 03:08:07;;;;;;;;;;;18.90;64.60;;;;;;5033107;28;19928;-52
2023/08/09 03:10:32;;;;;;;;;;;18.90;64.70;;;;;;5033955;28;19917;-53
2023/08/09 03:12:58;;;;;;;;;;;18.90;64.70;;;;;;5025004;28;19921;-53
2023/08/09 03:15:23;;;;;;;;;;;18.90;64.80;;;;;;5022053;28;19917;-52
2023/08/09 03:17:49;;;;;;;;;;;18.90;64.70;;;;;;5022349;28;20289;-52
2023/08/09 03:20:14;;;;;;;;;;;18.90;64.60;;;;;;5024245;28;19928;-53
2023/08/09 03:22:40;;;;;;;;;;;18.90;64.70;;;;;;5022539;28;20523;-52
2023/08/09 03:25:06;;;;;;;;;;;18.90;64.70;;;;;;5022932;28;19921;-53
2023/08/09 03:27:31;;;;;;;;;;;18.90;64.80;;;;;;5023521;28;20000;-53
2023/08/09 03:29:58;;;;;;;;;;;18.90;65.50;;;;;;5023084;28;19960;-52
2023/08/09 03:32:23;;;;;;;;;;;18.90;64.80;;;;;;5021977;28;19921;-53
2023/08/09 03:34:48;;;;;;;;;;;18.90;64.70;;;;;;5023034;28;19913;-52
2023/08/09 03:37:14;;;;;;;;;;;18.90;64.70;;;;;;5027091;28;19917;-53
2023/08/09 03:39:40;;;;;;;;;;;18.90;64.80;;;;;;5027056;28;20019;-52
2023/08/09 03:42:05;;;;;;;;;;;18.90;64.80;;;;;;5042023;28;19954;-52
2023/08/09 03:44:31;;;;;;;;;;;18.90;64.80;;;;;;5040665;28;19913;-52
2023/08/09 03:46:56;;;;;;;;;;;18.90;64.80;;;;;;5022344;28;19913;-52
2023/08/09 03:49:22;;;;;;;;;;;18.90;64.80;;;;;;5023242;28;20412;-54
2023/08/09 03:51:47;;;;;;;;;;;18.90;64.80;;;;;;5024508;28;20451;-52
2023/08/09 03:54:12;;;;;;;;;;;18.90;64.70;;;;;;5024689;28;20388;-52
2023/08/09 03:56:38;;;;;;;;;;;18.90;64.70;;;;;;5033026;28;20396;-53
2023/08/09 03:59:03;;;;;;;;;;;18.90;64.80;;;;;;5025877;28;20405;-52
2023/08/09 04:01:29;;;;;;;;;;;18.90;64.80;;;;;;5021530;28;19978;-52
2023/08/09 04:03:54;;;;;;;;;;;18.80;64.70;;;;;;5020864;28;20400;-54
2023/08/09 04:06:20;;;;;;;;;;;18.90;64.80;;;;;;5027846;28;20405;-52
2023/08/09 04:08:46;;;;;;;;;;;18.80;64.70;;;;;;5023419;28;19921;-52
2023/08/09 04:11:11;;;;;;;;;;;18.80;64.70;;;;;;5027737;28;19920;-52
2023/08/09 04:13:37;;;;;;;;;;;18.90;64.70;;;;;;5022797;28;20298;-53
2023/08/09 04:16:03;;;;;;;;;;;18.80;64.70;;;;;;5020647;28;20051;-53
2023/08/09 04:18:28;;;;;;;;;;;18.80;64.60;;;;;;5023689;28;19917;-53
2023/08/09 04:20:54;;;;;;;;;;;18.80;64.70;;;;;;5016146;28;19992;-54
2023/08/09 04:23:20;;;;;;;;;;;18.80;64.70;;;;;;5025005;28;19920;-52
2023/08/09 04:25:46;;;;;;;;;;;18.80;64.70;;;;;;5022913;28;19917;-53
2023/08/09 04:28:11;;;;;;;;;;;18.80;64.70;;;;;;5022918;28;19928;-53
2023/08/09 04:30:37;;;;;;;;;;;18.80;64.60;;;;;;5019097;28;19918;-52
2023/08/09 04:33:03;;;;;;;;;;;18.80;64.80;;;;;;5021930;28;19943;-53
2023/08/09 04:35:29;;;;;;;;;;;18.80;64.80;;;;;;5022618;28;19921;-52
2023/08/09 04:37:55;;;;;;;;;;;18.80;64.90;;;;;;5024920;28;19924;-52
2023/08/09 04:40:20;;;;;;;;;;;18.80;65.00;;;;;;5031292;28;19913;-53
2023/08/09 04:42:47;;;;;;;;;;;18.70;64.90;;;;;;5034025;28;19944;-53
2023/08/09 04:45:13;;;;;;;;;;;18.80;65.00;;;;;;5010221;28;20292;-52
2023/08/09 04:47:38;;;;;;;;;;;18.80;64.90;;;;;;5032344;28;19909;-52
2023/08/09 04:50:04;;;;;;;;;;;18.80;64.90;;;;;;5028754;28;19922;-53
2023/08/09 04:52:30;;;;;;;;;;;18.80;64.80;;;;;;5017960;28;20012;-53
2023/08/09 04:54:56;;;;;;;;;;;18.80;64.90;;;;;;5032387;28;19949;-52
2023/08/09 04:57:21;;;;;;;;;;;18.80;64.90;;;;;;5045190;28;19915;-52
2023/08/09 04:59:46;;;;;;;;;;;18.80;64.90;;;;;;5029681;28;20288;-52
2023/08/09 05:02:12;;;;;;;;;;;18.80;64.90;;;;;;5032367;28;20420;-52
2023/08/09 05:04:37;;;;;;;;;;;18.80;65.00;;;;;;5031898;28;19909;-52
2023/08/09 05:07:04;;;;;;;;;;;18.80;64.90;;;;;;5032270;28;20357;-52
2023/08/09 05:09:30;;;;;;;;;;;18.80;64.80;;;;;;5028123;28;19909;-53
2023/08/09 05:11:56;;;;;;;;;;;18.80;64.90;;;;;;5030013;28;19917;-52
2023/08/09 05:14:21;;;;;;;;;;;18.80;65.00;;;;;;5027276;28;20320;-52
2023/08/09 05:16:47;;;;;;;;;;;18.80;65.00;;;;;;5030685;28;19919;-52
2023/08/09 05:19:12;;;;;;;;;;;18.80;65.10;;;;;;5031722;28;20074;-52
2023/08/09 05:21:37;;;;;;;;;;;18.80;65.10;;;;;;5049369;28;19971;-53
2023/08/09 05:24:04;;;;;;;;;;;18.80;65.10;;;;;;5041290;28;19921;-52
2023/08/09 05:26:29;;;;;;;;;;;18.80;65.20;;;;;;5030313;28;20058;-52
2023/08/09 05:28:55;;;;;;;;;;;18.70;65.10;;;;;;5019540;28;20381;-52
2023/08/09 05:31:20;;;;;;;;;;;18.70;65.10;;;;;;5032338;28;19913;-54
2023/08/09 05:33:45;;;;;;;;;;;18.70;65.10;;;;;;5031789;28;20289;-53
2023/08/09 05:36:11;;;;;;;;;;;18.70;65.20;;;;;;5033099;28;20284;-53
2023/08/09 05:38:36;;;;;;;;;;;18.70;65.20;;;;;;5037519;28;20458;-54
2023/08/09 05:41:02;;;;;;;;;;;18.70;65.10;;;;;;5032018;28;19980;-52
2023/08/09 05:43:27;;;;;;;;;;;18.60;65.30;;;;;;5028361;28;20334;-52
2023/08/09 05:45:53;;;;;;;;;;;18.60;65.10;;;;;;5031823;28;20000;-53
2023/08/09 05:48:18;;;;;;;;;;;18.60;65.30;;;;;;5030344;28;20419;-53
2023/08/09 05:50:44;;;;;;;;;;;18.60;65.30;;;;;;5040346;28;20384;-53
2023/08/09 05:53:09;;;;;;;;;;;18.60;65.40;;;;;;5030474;28;20445;-53
2023/08/09 05:55:35;;;;;;;;;;;18.60;65.50;;;;;;5014232;28;19976;-52
2023/08/09 05:58:00;;;;;;;;;;;18.60;65.60;;;;;;5024250;28;19917;-53
2023/08/09 06:00:26;;;;;;;;;;;18.60;65.50;;;;;;5026654;28;20088;-52
2023/08/09 06:02:52;;;;;;;;;;;18.60;65.60;;;;;;5028432;28;19928;-52
2023/08/09 06:05:22;;;;;;;;;;;18.60;65.70;;;;;;5024174;28;20464;-52
2023/08/09 06:07:48;;;;;;;;;;;18.60;65.80;;;;;;5011191;28;19913;-52
2023/08/09 06:10:13;;;;;;;;;;;18.60;65.80;;;;;;5027103;28;20016;-53
2023/08/09 06:12:38;;;;;;;;;;;18.60;65.70;;;;;;5029653;28;19924;-52
2023/08/09 06:15:04;;;;;;;;;;;18.60;65.70;;;;;;5029935;28;19924;-53
2023/08/09 06:17:30;;;;;;;;;;;18.60;65.80;;;;;;5049721;28;19995;-53
2023/08/09 06:19:55;;;;;;;;;;;18.60;65.80;;;;;;5040716;28;20186;-52
2023/08/09 06:22:21;;;;;;;;;;;18.60;65.80;;;;;;5029027;28;19959;-52
2023/08/09 06:24:46;;;;;;;;;;;18.60;65.80;;;;;;5028963;28;19917;-52
2023/08/09 06:27:11;;;;;;;;;;;18.70;65.70;;;;;;5009523;28;19917;-53
2023/08/09 06:29:37;;;;;;;;;;;18.60;65.90;;;;;;5030028;28;20399;-53
2023/08/09 06:32:02;;;;;;;;;;;18.60;65.80;;;;;;5030394;28;19914;-52
2023/08/09 06:34:28;;;;;;;;;;;18.70;65.80;;;;;;5031120;28;19913;-52
2023/08/09 06:36:53;;;;;;;;;;;18.60;65.80;;;;;;5030704;28;19909;-53
2023/08/09 06:39:19;;;;;;;;;;;18.60;65.80;;;;;;5031688;28;19920;-52
2023/08/09 06:41:44;;;;;;;;;;;18.70;65.80;;;;;;5019708;28;19916;-53
2023/08/09 06:44:10;;;;;;;;;;;18.60;65.70;;;;;;5033790;28;20328;-53
2023/08/09 06:46:36;;;;;;;;;;;18.60;65.90;;;;;;5032092;28;20546;-52
2023/08/09 06:49:01;;;;;;;;;;;18.60;66.00;;;;;;5031136;28;19944;-52
2023/08/09 06:51:26;;;;;;;;;;;18.60;66.00;;;;;;5034645;28;20310;-53
2023/08/09 06:53:52;;;;;;;;;;;18.60;65.90;;;;;;5016610;28;20477;-53
2023/08/09 06:56:18;;;;;;;;;;;18.60;66.00;;;;;;5034080;28;20281;-52
2023/08/09 06:58:43;;;;;;;;;;;18.70;66.10;;;;;;5029649;28;20335;-52
2023/08/09 07:01:11;;;;;;;;;;;18.60;66.10;;;;;;5030153;28;20331;-52
2023/08/09 07:03:37;;;;;;;;;;;18.60;66.10;;;;;;5024801;28;19917;-53
2023/08/09 07:06:03;;;;;;;;;;;18.60;66.20;;;;;;5027349;28;19914;-53
2023/08/09 07:08:28;;;;;;;;;;;18.60;66.20;;;;;;5032356;28;19913;-53
2023/08/09 07:10:55;;;;;;;;;;;18.60;66.20;;;;;;5031378;28;20365;-53
2023/08/09 07:13:21;;;;;;;;;;;18.60;66.10;;;;;;5031120;28;19917;-53
2023/08/09 07:15:46;;;;;;;;;;;18.70;66.10;;;;;;5031140;28;19921;-53
2023/08/09 07:18:12;;;;;;;;;;;18.70;66.10;;;;;;5029663;28;20343;-53
2023/08/09 07:20:37;;;;;;;;;;;18.70;66.20;;;;;;5030391;28;19933;-53
2023/08/09 07:23:03;;;;;;;;;;;18.70;66.10;;;;;;5030683;28;20396;-52
2023/08/09 07:25:28;;;;;;;;;;;18.70;66.20;;;;;;5032060;28;19913;-54
2023/08/09 07:27:54;;;;;;;;;;;18.70;66.20;;;;;;5033663;28;19917;-54
2023/08/09 07:30:19;;;;;;;;;;;18.70;66.20;;;;;;5029546;28;19913;-54
2023/08/09 07:32:44;;;;;;;;;;;18.70;66.10;;;;;;5029918;28;19917;-54
2023/08/09 07:35:10;;;;;;;;;;;18.80;66.30;;;;;;5032619;28;19917;-54
2023/08/09 07:37:36;;;;;;;;;;;18.70;66.20;;;;;;5038785;28;19986;-53
2023/08/09 07:40:03;;;;;;;;;;;18.70;66.30;;;;;;5033617;28;19913;-53
2023/08/09 07:42:28;;;;;;;;;;;18.70;66.30;;;;;;5036581;28;19921;-54
2023/08/09 07:44:54;;;;;;;;;;;18.80;66.40;;;;;;5033346;28;19913;-53
2023/08/09 07:47:19;;;;;;;;;;;18.80;66.30;;;;;;5033345;28;20011;-53
2023/08/09 07:49:45;;;;;;;;;;;18.80;66.10;;;;;;5031088;28;19932;-54
2023/08/09 07:52:11;;;;;;;;;;;18.80;66.10;;;;;;5032170;28;19972;-53
2023/08/09 07:54:36;;;;;;;;;;;18.80;66.10;;;;;;5033125;28;19917;-53
2023/08/09 07:57:03;;;;;;;;;;;18.80;66.10;;;;;;5033220;28;19917;-54
2023/08/09 07:59:28;;;;;;;;;;;18.90;66.10;;;;;;5031379;28;19921;-53
2023/08/09 08:01:53;;;;;;;;;;;18.90;66.00;;;;;;5035528;28;19959;-54
2023/08/09 08:04:19;;;;;;;;;;;18.90;66.10;;;;;;5029006;28;19917;-53
2023/08/09 08:06:45;;;;;;;;;;;18.90;66.30;;;;;;5024528;28;20131;-53
2023/08/09 08:09:12;;;;;;;;;;;18.80;66.30;;;;;;5026054;28;20000;-53
2023/08/09 08:11:41;;;;;;;;;;;18.90;66.20;;;;;;5027087;28;20610;-53
2023/08/09 08:14:06;;;;;;;;;;;18.80;66.30;;;;;;5029667;28;19963;-53
2023/08/09 08:16:32;;;;;;;;;;;18.80;66.40;;;;;;5028382;28;19913;-53
2023/08/09 08:18:57;;;;;;;;;;;18.90;66.50;;;;;;5015145;28;19918;-52
2023/08/09 08:21:23;;;;;;;;;;;18.80;66.30;;;;;;5027202;28;20361;-54
2023/08/09 08:23:48;;;;;;;;;;;18.80;66.40;;;;;;5028559;28;20004;-53
2023/08/09 08:26:15;;;;;;;;;;;18.90;66.50;;;;;;5037117;28;19913;-52
2023/08/09 08:28:40;;;;;;;;;;;18.90;66.60;;;;;;5031963;28;19942;-53
2023/08/09 08:31:07;;;;;;;;;;;18.90;66.70;;;;;;5032490;28;20003;-53
2023/08/09 08:33:33;;;;;;;;;;;18.90;66.60;;;;;;5031683;28;19924;-55
2023/08/09 08:35:59;;;;;;;;;;;18.90;66.30;;;;;;5029581;28;19914;-53
2023/08/09 08:38:24;;;;;;;;;;;18.90;66.20;;;;;;5024570;28;20403;-53
2023/08/09 08:40:49;;;;;;;;;;;19.00;66.50;;;;;;5026246;28;19921;-53
2023/08/09 08:43:15;;;;;;;;;;;19.00;66.40;;;;;;5029453;28;19924;-53
2023/08/09 08:45:40;;;;;;;;;;;19.00;66.30;;;;;;5031024;28;19920;-53
2023/08/09 08:48:06;;;;;;;;;;;19.00;66.20;;;;;;5028737;28;20015;-53
2023/08/09 08:50:32;;;;;;;;;;;19.10;66.50;;;;;;5030490;28;19936;-53
2023/08/09 08:52:57;;;;;;;;;;;19.10;66.40;;;;;;5008514;28;19913;-53
2023/08/09 08:55:23;;;;;;;;;;;19.10;66.40;;;;;;5032879;28;19913;-53
2023/08/09 08:57:49;;;;;;;;;;;19.10;66.50;;;;;;5028158;28;19913;-53
2023/08/09 09:00:18;;;;;;;;;;;19.10;66.50;;;;;;5029311;28;19957;-53
2023/08/09 09:02:43;;;;;;;;;;;19.10;66.50;;;;;;5032404;28;19909;-53
2023/08/09 09:05:09;;;;;;;;;;;19.10;66.50;;;;;;5025261;28;20000;-53
2023/08/09 09:07:36;;;;;;;;;;;19.20;66.20;;;;;;5025108;28;19913;-52
2023/08/09 09:10:03;;;;;;;;;;;19.10;66.10;;;;;;5029714;28;19996;-53
2023/08/09 09:12:29;;;;;;;;;;;19.20;66.50;;;;;;5030808;28;20395;-53
2023/08/09 09:14:54;;;;;;;;;;;19.20;66.40;;;;;;5043053;28;19908;-53
2023/08/09 09:17:20;;;;;;;;;;;19.10;66.20;;;;;;5052034;28;19930;-53
2023/08/09 09:19:45;;;;;;;;;;;19.10;66.60;;;;;;5022457;28;19917;-53
2023/08/09 09:22:14;;;;;;;;;;;19.10;66.70;;;;;;5012332;28;19913;-54
2023/08/09 09:24:40;;;;;;;;;;;19.20;66.60;;;;;;5013862;28;20888;-53
2023/08/09 09:27:06;;;;;;;;;;;19.20;66.90;;;;;;5046984;28;19913;-53
2023/08/09 09:29:34;;;;;;;;;;;19.10;66.60;;;;;;5029363;28;19955;-53
2023/08/09 09:32:00;;;;;;;;;;;19.10;66.80;;;;;;5028969;28;19920;-53
2023/08/09 09:34:28;;;;;;;;;;;19.10;66.70;;;;;;5008865;28;19918;-53
2023/08/09 09:36:55;;;;;;;;;;;19.10;66.80;;;;;;5031691;28;19955;-53
2023/08/09 09:39:21;;;;;;;;;;;19.10;66.50;;;;;;5030810;28;20412;-53
2023/08/09 09:41:47;;;;;;;;;;;19.10;66.80;;;;;;5013232;28;19918;-53
2023/08/09 09:44:17;;;;;;;;;;;19.20;67.00;;;;;;5010641;28;19916;-53
2023/08/09 09:46:42;;;;;;;;;;;19.10;67.10;;;;;;5011977;28;20066;-53
2023/08/09 09:49:08;;;;;;;;;;;19.20;67.30;;;;;;5029018;28;20011;-53
2023/08/09 09:51:33;;;;;;;;;;;19.20;67.30;;;;;;5031696;28;19913;-53
2023/08/09 09:53:59;;;;;;;;;;;19.30;67.50;;;;;;5031463;28;19915;-52
2023/08/09 09:56:24;;;;;;;;;;;19.20;67.20;;;;;;5013729;28;20344;-53
2023/08/09 09:58:50;;;;;;;;;;;19.30;67.20;;;;;;5029453;28;19921;-52
2023/08/09 10:01:19;;;;;;;;;;;19.40;67.20;;;;;;5029517;28;19966;-53
2023/08/09 10:03:44;;;;;;;;;;;19.40;67.10;;;;;;5002122;28;20005;-54
2023/08/09 10:06:14;;;;;;;;;;;19.40;67.00;;;;;;5010768;28;20036;-52
2023/08/09 10:08:40;;;;;;;;;;;19.50;66.80;;;;;;5031317;28;19916;-52
2023/08/09 10:11:06;;;;;;;;;;;19.50;66.60;;;;;;5031480;28;20340;-52
2023/08/09 10:13:31;;;;;;;;;;;19.50;66.80;;;;;;5020355;28;19912;-52
2023/08/09 10:15:58;;;;;;;;;;;19.50;66.90;;;;;;5045796;28;19939;-52
2023/08/09 10:18:24;;;;;;;;;;;19.50;66.70;;;;;;5034133;28;19913;-52
2023/08/09 10:20:51;;;;;;;;;;;19.50;66.80;;;;;;5017503;28;19952;-52
2023/08/09 10:23:21;;;;;;;;;;;19.50;66.80;;;;;;5033527;28;19913;-52
2023/08/09 10:25:46;;;;;;;;;;;19.50;66.90;;;;;;5036615;28;19987;-53
2023/08/09 10:28:12;;;;;;;;;;;19.50;66.70;;;;;;5054479;28;19995;-53
2023/08/09 10:30:47;;;;;;;;;;;19.60;66.90;;;;;;5046911;28;19932;-52
2023/08/09 10:33:18;;;;;;;;;;;19.60;66.90;;;;;;5031266;28;19917;-52
2023/08/09 10:35:44;;;;;;;;;;;19.60;66.60;;;;;;5036784;28;20373;-52
2023/08/09 10:38:13;;;;;;;;;;;19.60;66.50;;;;;;5029631;28;19916;-53
2023/08/09 10:40:40;;;;;;;;;;;19.50;66.50;;;;;;5033379;28;20000;-54
2023/08/09 10:43:05;;;;;;;;;;;19.50;66.60;;;;;;5034550;28;19913;-53
2023/08/09 10:45:31;;;;;;;;;;;19.60;66.80;;;;;;5029381;28;19909;-52
2023/08/09 10:48:15;;;;;;;;;;;19.50;66.70;;;;;;5033358;28;19970;-52
2023/08/09 10:50:40;;;;;;;;;;;19.50;66.70;;;;;;5032555;28;19917;-52
2023/08/09 10:53:06;;;;;;;;;;;19.50;66.80;;;;;;5033030;28;19909;-52
2023/08/09 10:55:32;;;;;;;;;;;19.50;66.90;;;;;;5035273;28;20023;-52
2023/08/09 10:57:58;;;;;;;;;;;19.50;66.80;;;;;;5027871;28;19989;-52
2023/08/09 11:00:23;;;;;;;;;;;19.50;66.80;;;;;;5034978;28;19924;-52
2023/08/09 11:02:52;;;;;;;;;;;19.50;67.00;;;;;;5027288;28;20317;-52
2023/08/09 11:05:18;;;;;;;;;;;19.50;66.80;;;;;;5032553;28;19974;-53
2023/08/09 11:07:49;;;;;;;;;;;19.50;66.70;;;;;;5034021;28;19917;-52
2023/08/09 11:10:17;;;;;;;;;;;19.50;66.70;;;;;;5031125;28;19913;-53
2023/08/09 11:12:43;;;;;;;;;;;19.60;66.80;;;;;;5034656;28;20007;-53
2023/08/09 11:15:08;;;;;;;;;;;19.60;66.40;;;;;;5031034;28;19917;-53
2023/08/09 11:17:35;;;;;;;;;;;19.70;66.10;;;;;;5032948;28;19913;-53
2023/08/09 11:20:00;;;;;;;;;;;19.70;66.10;;;;;;5031697;28;19943;-53
2023/08/09 11:22:26;;;;;;;;;;;19.70;65.70;;;;;;5030479;28;20008;-52
2023/08/09 11:24:54;;;;;;;;;;;19.70;65.70;;;;;;5034486;28;19916;-53
2023/08/09 11:27:19;;;;;;;;;;;19.80;65.40;;;;;;5028982;28;19914;-52
2023/08/09 11:29:46;;;;;;;;;;;19.80;65.10;;;;;;5030008;28;20278;-53
2023/08/09 11:32:11;;;;;;;;;;;19.90;65.00;;;;;;5032133;28;19913;-53
2023/08/09 11:34:37;;;;;;;;;;;19.90;65.00;;;;;;5029664;28;19917;-53
2023/08/09 11:37:03;;;;;;;;;;;19.90;65.00;;;;;;5013422;28;19928;-52
2023/08/09 11:39:28;;;;;;;;;;;19.90;65.10;;;;;;5013884;28;20325;-54
2023/08/09 11:41:55;;;;;;;;;;;20.00;64.90;;;;;;5015320;28;20031;-52
2023/08/09 11:44:34;;;;;;;;;;;19.90;64.40;;;;;;5014367;28;20422;-52
2023/08/09 11:47:00;;;;;;;;;;;19.90;64.40;;;;;;5014219;28;19909;-52
2023/08/09 11:49:26;;;;;;;;;;;19.90;64.50;;;;;;5021873;28;20297;-53
2023/08/09 11:51:52;;;;;;;;;;;20.00;64.70;;;;;;5029116;28;19991;-53
2023/08/09 11:54:17;;;;;;;;;;;19.90;64.60;;;;;;5029425;28;20372;-52
2023/08/09 11:56:43;;;;;;;;;;;19.90;64.60;;;;;;5002891;28;19945;-53
2023/08/09 11:59:11;;;;;;;;;;;19.90;64.70;;;;;;5018141;28;19961;-52
2023/08/09 12:01:37;;;;;;;;;;;20.00;64.40;;;;;;5030935;28;20008;-53
2023/08/09 12:04:07;;;;;;;;;;;20.00;64.20;;;;;;5032884;28;19917;-52
2023/08/09 12:06:33;;;;;;;;;;;20.10;64.00;;;;;;5014854;28;19913;-53
2023/08/09 12:08:59;;;;;;;;;;;20.20;63.90;;;;;;5032931;28;19909;-54
2023/08/09 12:11:24;;;;;;;;;;;20.10;63.90;;;;;;5030820;28;20442;-52
2023/08/09 12:13:50;;;;;;;;;;;20.10;62.30;;;;;;5035694;28;19975;-52
2023/08/09 12:16:15;;;;;;;;;;;20.00;61.90;;;;;;5031670;28;20000;-54
2023/08/09 12:18:41;;;;;;;;;;;19.90;61.40;;;;;;5029279;28;19941;-53
2023/08/09 12:21:07;;;;;;;;;;;19.90;61.90;;;;;;5031897;28;19920;-52
2023/08/09 12:23:33;;;;;;;;;;;19.80;62.00;;;;;;5023037;28;19967;-52
2023/08/09 12:25:59;;;;;;;;;;;19.70;62.10;;;;;;5025169;28;19913;-52
2023/08/09 12:28:24;;;;;;;;;;;19.70;62.30;;;;;;5026165;28;20786;-52
2023/08/09 12:30:50;;;;;;;;;;;19.70;62.30;;;;;;5023050;28;20250;-53
2023/08/09 12:33:16;;;;;;;;;;;19.80;62.60;;;;;;5023901;28;20357;-53
2023/08/09 12:35:41;;;;;;;;;;;19.80;62.80;;;;;;5023223;28;19917;-53
2023/08/09 12:38:07;;;;;;;;;;;19.80;63.10;;;;;;5029366;28;20385;-53
2023/08/09 12:40:32;;;;;;;;;;;19.80;63.20;;;;;;5031863;28;19917;-54
2023/08/09 12:42:58;;;;;;;;;;;19.80;63.20;;;;;;5032852;28;20368;-54
2023/08/09 12:45:23;;;;;;;;;;;19.90;63.20;;;;;;5032049;28;19913;-53
2023/08/09 12:47:48;;;;;;;;;;;19.90;63.20;;;;;;5027087;28;19913;-52
2023/08/09 12:50:14;;;;;;;;;;;19.90;63.30;;;;;;5027636;28;20003;-52
2023/08/09 12:52:39;;;;;;;;;;;19.90;63.40;;;;;;5032271;28;19913;-52
2023/08/09 12:55:05;;;;;;;;;;;19.90;63.40;;;;;;5026228;28;20012;-53
2023/08/09 12:57:30;;;;;;;;;;;19.90;63.50;;;;;;5026419;28;19917;-52
2023/08/09 12:59:57;;;;;;;;;;;20.00;63.60;;;;;;5031963;28;19937;-52
2023/08/09 13:02:22;;;;;;;;;;;20.10;63.60;;;;;;5019175;28;19913;-52
2023/08/09 13:04:49;;;;;;;;;;;20.10;63.50;;;;;;5021704;28;19920;-54
2023/08/09 13:07:14;;;;;;;;;;;20.20;63.50;;;;;;5029281;28;19913;-53
2023/08/09 13:09:40;;;;;;;;;;;20.20;63.10;;;;;;5024780;28;19940;-52
2023/08/09 13:12:06;;;;;;;;;;;20.30;63.20;;;;;;5032290;28;19920;-53
2023/08/09 13:14:31;;;;;;;;;;;20.30;63.20;;;;;;5029157;28;20283;-52
2023/08/09 13:16:57;;;;;;;;;;;20.30;63.30;;;;;;5027838;28;19940;-52
2023/08/09 13:19:23;;;;;;;;;;;20.30;63.40;;;;;;5031917;28;19943;-52
2023/08/09 13:21:48;;;;;;;;;;;20.30;63.40;;;;;;5032285;28;19956;-52
2023/08/09 13:24:13;;;;;;;;;;;20.30;63.40;;;;;;5026451;28;19921;-53
2023/08/09 13:26:39;;;;;;;;;;;20.30;63.40;;;;;;5029651;28;19913;-52
2023/08/09 13:29:04;;;;;;;;;;;20.20;63.50;;;;;;5025698;28;19917;-53
2023/08/09 13:31:30;;;;;;;;;;;20.20;63.70;;;;;;5023040;28;19917;-53
2023/08/09 13:33:55;;;;;;;;;;;20.10;63.90;;;;;;5026987;28;20007;-53
2023/08/09 13:36:21;;;;;;;;;;;20.10;64.10;;;;;;5028556;28;19921;-52
2023/08/09 13:38:46;;;;;;;;;;;20.10;64.30;;;;;;5032207;28;20008;-52
2023/08/09 13:41:12;;;;;;;;;;;20.10;64.40;;;;;;5028720;28;20299;-53
2023/08/09 13:43:37;;;;;;;;;;;20.00;64.40;;;;;;5025721;28;20289;-52
2023/08/09 13:46:03;;;;;;;;;;;20.00;64.60;;;;;;5030986;28;20014;-52
2023/08/09 13:48:28;;;;;;;;;;;20.00;64.60;;;;;;5022155;28;19927;-52
2023/08/09 13:50:54;;;;;;;;;;;20.00;64.70;;;;;;5021152;28;19931;-53
2023/08/09 13:53:19;;;;;;;;;;;20.00;64.80;;;;;;5012376;28;19917;-53
2023/08/09 13:55:45;;;;;;;;;;;20.00;65.00;;;;;;5030968;28;19917;-54
2023/08/09 13:58:11;;;;;;;;;;;20.00;65.00;;;;;;5036072;28;20395;-54
2023/08/09 14:00:37;;;;;;;;;;;20.00;65.00;;;;;;5042822;28;19979;-53
2023/08/09 14:03:04;;;;;;;;;;;20.10;65.10;;;;;;5016965;28;19957;-53
2023/08/09 14:05:30;;;;;;;;;;;20.10;65.00;;;;;;5031146;28;20341;-53
2023/08/09 14:07:55;;;;;;;;;;;20.20;65.10;;;;;;5026902;28;19980;-53